Terminal Aerodrome Forecast
Issued by NWS

Home | Current Version | Previous Version | Text Only | Print | Product List | Glossary On
Versions: 1 2 3 4 5 6 7 8 9 10 11 12 13 14 15 16 17 18 19 20 21 22 23 24 25 26 27 28
000
FTUS44 KHGX 301503 AAB
TAFSGR
TAF AMD
KSGR 301503Z 3015/0112 06009KT P6SM SCT045
     FM301900 30004KT P6SM SCT035
     FM302100 VRB02KT P6SM FEW050
     FM010700 03006KT P6SM BKN015=

USA.gov is the U.S. government's official web portal to all federal, state and local government web resources and services.